sensor_id;sensor_type;location;lat;lon;timestamp;P1;durP1;ratioP1;P2;durP2;ratioP2
53391;SDS011;41667;51.922;8.850;2022-08-07T00:00:16;1.50;;;1.40;;
53391;SDS011;41667;51.922;8.850;2022-08-07T00:02:41;1.80;;;1.40;;
53391;SDS011;41667;51.922;8.850;2022-08-07T00:05:06;1.20;;;1.20;;
53391;SDS011;41667;51.922;8.850;2022-08-07T00:07:31;1.97;;;1.87;;
53391;SDS011;41667;51.922;8.850;2022-08-07T00:09:57;1.20;;;1.17;;
53391;SDS011;41667;51.922;8.850;2022-08-07T00:12:22;3.80;;;1.58;;
53391;SDS011;41667;51.922;8.850;2022-08-07T00:14:47;1.33;;;1.20;;
53391;SDS011;41667;51.922;8.850;2022-08-07T00:17:12;1.60;;;1.42;;
53391;SDS011;41667;51.922;8.850;2022-08-07T00:19:37;1.52;;;1.13;;
53391;SDS011;41667;51.922;8.850;2022-08-07T00:22:02;1.50;;;1.38;;
53391;SDS011;41667;51.922;8.850;2022-08-07T00:24:27;4.35;;;1.30;;
53391;SDS011;41667;51.922;8.850;2022-08-07T00:26:53;1.23;;;1.23;;
53391;SDS011;41667;51.922;8.850;2022-08-07T00:29:18;1.20;;;1.20;;
53391;SDS011;41667;51.922;8.850;2022-08-07T00:31:43;1.30;;;1.30;;
53391;SDS011;41667;51.922;8.850;2022-08-07T00:34:08;2.67;;;1.73;;
53391;SDS011;41667;51.922;8.850;2022-08-07T00:36:34;1.23;;;1.23;;
53391;SDS011;41667;51.922;8.850;2022-08-07T00:38:59;2.57;;;1.33;;
53391;SDS011;41667;51.922;8.850;2022-08-07T00:41:25;1.88;;;1.02;;
53391;SDS011;41667;51.922;8.850;2022-08-07T00:43:51;1.73;;;1.20;;
53391;SDS011;41667;51.922;8.850;2022-08-07T00:46:16;1.17;;;1.08;;
53391;SDS011;41667;51.922;8.850;2022-08-07T00:48:41;3.80;;;2.47;;
53391;SDS011;41667;51.922;8.850;2022-08-07T00:51:06;2.22;;;1.25;;
53391;SDS011;41667;51.922;8.850;2022-08-07T00:53:32;3.10;;;2.25;;
53391;SDS011;41667;51.922;8.850;2022-08-07T00:55:57;2.53;;;1.40;;
53391;SDS011;41667;51.922;8.850;2022-08-07T00:58:22;1.00;;;1.00;;
53391;SDS011;41667;51.922;8.850;2022-08-07T01:00:47;1.88;;;1.30;;
53391;SDS011;41667;51.922;8.850;2022-08-07T01:03:13;1.90;;;1.15;;
53391;SDS011;41667;51.922;8.850;2022-08-07T01:05:38;1.50;;;1.40;;
53391;SDS011;41667;51.922;8.850;2022-08-07T01:08:04;1.35;;;1.25;;
53391;SDS011;41667;51.922;8.850;2022-08-07T01:10:30;2.95;;;1.40;;
53391;SDS011;41667;51.922;8.850;2022-08-07T01:12:56;1.35;;;1.30;;
53391;SDS011;41667;51.922;8.850;2022-08-07T01:15:22;3.70;;;1.38;;
53391;SDS011;41667;51.922;8.850;2022-08-07T01:17:47;1.80;;;1.15;;
53391;SDS011;41667;51.922;8.850;2022-08-07T01:20:12;1.85;;;1.65;;
53391;SDS011;41667;51.922;8.850;2022-08-07T01:22:39;1.52;;;1.50;;
53391;SDS011;41667;51.922;8.850;2022-08-07T01:25:04;1.88;;;1.55;;
53391;SDS011;41667;51.922;8.850;2022-08-07T01:27:30;1.40;;;1.27;;
53391;SDS011;41667;51.922;8.850;2022-08-07T01:29:55;2.38;;;1.40;;
53391;SDS011;41667;51.922;8.850;2022-08-07T01:32:21;1.30;;;1.25;;
53391;SDS011;41667;51.922;8.850;2022-08-07T01:34:46;1.55;;;1.50;;
53391;SDS011;41667;51.922;8.850;2022-08-07T01:37:11;3.78;;;1.95;;
53391;SDS011;41667;51.922;8.850;2022-08-07T01:39:41;1.10;;;1.10;;
53391;SDS011;41667;51.922;8.850;2022-08-07T01:42:06;1.45;;;1.30;;
53391;SDS011;41667;51.922;8.850;2022-08-07T01:44:31;2.42;;;1.13;;
53391;SDS011;41667;51.922;8.850;2022-08-07T01:46:57;2.00;;;1.55;;
53391;SDS011;41667;51.922;8.850;2022-08-07T01:49:22;4.68;;;1.50;;
53391;SDS011;41667;51.922;8.850;2022-08-07T01:51:47;2.35;;;1.38;;
53391;SDS011;41667;51.922;8.850;2022-08-07T01:54:13;1.48;;;1.38;;
53391;SDS011;41667;51.922;8.850;2022-08-07T01:56:40;3.15;;;1.50;;
53391;SDS011;41667;51.922;8.850;2022-08-07T01:59:08;1.50;;;1.50;;
53391;SDS011;41667;51.922;8.850;2022-08-07T02:01:36;1.70;;;1.60;;
53391;SDS011;41667;51.922;8.850;2022-08-07T02:04:09;1.33;;;1.33;;
53391;SDS011;41667;51.922;8.850;2022-08-07T02:06:35;1.52;;;1.40;;
53391;SDS011;41667;51.922;8.850;2022-08-07T02:09:03;1.98;;;1.77;;
53391;SDS011;41667;51.922;8.850;2022-08-07T02:11:29;1.30;;;1.30;;
53391;SDS011;41667;51.922;8.850;2022-08-07T02:13:54;1.02;;;1.02;;
53391;SDS011;41667;51.922;8.850;2022-08-07T02:16:23;1.88;;;1.15;;
53391;SDS011;41667;51.922;8.850;2022-08-07T02:18:48;1.33;;;1.23;;
53391;SDS011;41667;51.922;8.850;2022-08-07T02:21:14;1.60;;;1.50;;
53391;SDS011;41667;51.922;8.850;2022-08-07T02:23:41;2.30;;;1.63;;
53391;SDS011;41667;51.922;8.850;2022-08-07T02:26:06;1.65;;;1.38;;
53391;SDS011;41667;51.922;8.850;2022-08-07T02:28:32;1.63;;;1.50;;
53391;SDS011;41667;51.922;8.850;2022-08-07T02:30:59;1.48;;;1.42;;
53391;SDS011;41667;51.922;8.850;2022-08-07T02:33:25;1.48;;;1.38;;
53391;SDS011;41667;51.922;8.850;2022-08-07T02:35:51;1.30;;;1.15;;
53391;SDS011;41667;51.922;8.850;2022-08-07T02:38:17;1.67;;;1.58;;
53391;SDS011;41667;51.922;8.850;2022-08-07T02:40:42;1.65;;;1.55;;
53391;SDS011;41667;51.922;8.850;2022-08-07T02:43:08;1.88;;;1.48;;
53391;SDS011;41667;51.922;8.850;2022-08-07T02:45:33;1.88;;;1.77;;
53391;SDS011;41667;51.922;8.850;2022-08-07T02:48:01;1.60;;;1.40;;
53391;SDS011;41667;51.922;8.850;2022-08-07T02:50:26;1.60;;;1.50;;
53391;SDS011;41667;51.922;8.850;2022-08-07T02:52:58;1.50;;;1.40;;
53391;SDS011;41667;51.922;8.850;2022-08-07T02:55:25;2.08;;;1.50;;
53391;SDS011;41667;51.922;8.850;2022-08-07T02:57:51;1.92;;;1.30;;
53391;SDS011;41667;51.922;8.850;2022-08-07T03:00:17;2.42;;;1.85;;
53391;SDS011;41667;51.922;8.850;2022-08-07T03:02:43;1.70;;;1.60;;
53391;SDS011;41667;51.922;8.850;2022-08-07T03:05:09;3.30;;;1.88;;
53391;SDS011;41667;51.922;8.850;2022-08-07T03:07:35;2.72;;;1.30;;
53391;SDS011;41667;51.922;8.850;2022-08-07T03:10:01;1.88;;;1.77;;
53391;SDS011;41667;51.922;8.850;2022-08-07T03:12:26;2.28;;;1.75;;
53391;SDS011;41667;51.922;8.850;2022-08-07T03:14:52;1.60;;;1.50;;
53391;SDS011;41667;51.922;8.850;2022-08-07T03:17:20;3.53;;;1.52;;
53391;SDS011;41667;51.922;8.850;2022-08-07T03:19:45;2.07;;;1.87;;
53391;SDS011;41667;51.922;8.850;2022-08-07T03:22:11;3.22;;;1.80;;
53391;SDS011;41667;51.922;8.850;2022-08-07T03:24:37;4.73;;;1.87;;
53391;SDS011;41667;51.922;8.850;2022-08-07T03:27:02;1.70;;;1.60;;
53391;SDS011;41667;51.922;8.850;2022-08-07T03:29:50;2.45;;;1.70;;
53391;SDS011;41667;51.922;8.850;2022-08-07T03:32:14;3.80;;;1.80;;
53391;SDS011;41667;51.922;8.850;2022-08-07T03:34:41;2.63;;;1.50;;
53391;SDS011;41667;51.922;8.850;2022-08-07T03:37:07;1.85;;;1.70;;
53391;SDS011;41667;51.922;8.850;2022-08-07T03:39:32;2.35;;;1.80;;
53391;SDS011;41667;51.922;8.850;2022-08-07T03:41:59;1.10;;;1.10;;
53391;SDS011;41667;51.922;8.850;2022-08-07T03:44:26;3.67;;;2.20;;
53391;SDS011;41667;51.922;8.850;2022-08-07T03:46:51;1.90;;;1.80;;
53391;SDS011;41667;51.922;8.850;2022-08-07T03:49:16;1.88;;;1.70;;
53391;SDS011;41667;51.922;8.850;2022-08-07T03:51:41;1.77;;;1.67;;
53391;SDS011;41667;51.922;8.850;2022-08-07T03:54:07;3.08;;;1.90;;
53391;SDS011;41667;51.922;8.850;2022-08-07T03:56:32;1.67;;;1.60;;
53391;SDS011;41667;51.922;8.850;2022-08-07T03:58:59;1.90;;;1.80;;
53391;SDS011;41667;51.922;8.850;2022-08-07T04:01:25;1.70;;;1.60;;
53391;SDS011;41667;51.922;8.850;2022-08-07T04:03:51;2.00;;;1.80;;
53391;SDS011;41667;51.922;8.850;2022-08-07T04:06:16;2.78;;;1.80;;
53391;SDS011;41667;51.922;8.850;2022-08-07T04:08:42;2.17;;;1.63;;
53391;SDS011;41667;51.922;8.850;2022-08-07T04:11:07;3.88;;;1.92;;
53391;SDS011;41667;51.922;8.850;2022-08-07T04:13:34;2.03;;;1.67;;
53391;SDS011;41667;51.922;8.850;2022-08-07T04:15:59;3.30;;;1.73;;
53391;SDS011;41667;51.922;8.850;2022-08-07T04:18:25;1.70;;;1.60;;
53391;SDS011;41667;51.922;8.850;2022-08-07T04:20:50;1.57;;;1.47;;
53391;SDS011;41667;51.922;8.850;2022-08-07T04:23:15;3.75;;;1.95;;
53391;SDS011;41667;51.922;8.850;2022-08-07T04:25:40;2.00;;;1.90;;
53391;SDS011;41667;51.922;8.850;2022-08-07T04:28:06;3.27;;;1.40;;
53391;SDS011;41667;51.922;8.850;2022-08-07T04:30:35;2.28;;;1.67;;
53391;SDS011;41667;51.922;8.850;2022-08-07T04:33:03;2.45;;;1.50;;
53391;SDS011;41667;51.922;8.850;2022-08-07T04:35:29;1.85;;;1.75;;
53391;SDS011;41667;51.922;8.850;2022-08-07T04:37:54;3.40;;;2.00;;
53391;SDS011;41667;51.922;8.850;2022-08-07T04:40:19;2.90;;;2.60;;
53391;SDS011;41667;51.922;8.850;2022-08-07T04:42:45;3.97;;;2.20;;
53391;SDS011;41667;51.922;8.850;2022-08-07T04:45:10;6.32;;;2.35;;
53391;SDS011;41667;51.922;8.850;2022-08-07T04:47:40;3.78;;;2.30;;
53391;SDS011;41667;51.922;8.850;2022-08-07T04:52:42;2.55;;;1.98;;
53391;SDS011;41667;51.922;8.850;2022-08-07T04:55:52;2.15;;;1.95;;
53391;SDS011;41667;51.922;8.850;2022-08-07T04:57:58;4.88;;;2.25;;
53391;SDS011;41667;51.922;8.850;2022-08-07T05:08:02;3.80;;;2.25;;
53391;SDS011;41667;51.922;8.850;2022-08-07T05:10:38;2.05;;;1.95;;
53391;SDS011;41667;51.922;8.850;2022-08-07T05:15:30;2.75;;;2.17;;
53391;SDS011;41667;51.922;8.850;2022-08-07T05:18:01;2.60;;;2.38;;
53391;SDS011;41667;51.922;8.850;2022-08-07T05:20:31;6.68;;;2.25;;
53391;SDS011;41667;51.922;8.850;2022-08-07T05:22:59;2.58;;;2.20;;
53391;SDS011;41667;51.922;8.850;2022-08-07T05:25:25;2.85;;;2.63;;
53391;SDS011;41667;51.922;8.850;2022-08-07T05:27:51;2.80;;;2.50;;
53391;SDS011;41667;51.922;8.850;2022-08-07T05:30:16;4.20;;;2.58;;
53391;SDS011;41667;51.922;8.850;2022-08-07T05:32:42;2.67;;;2.10;;
53391;SDS011;41667;51.922;8.850;2022-08-07T05:35:10;5.47;;;2.85;;
53391;SDS011;41667;51.922;8.850;2022-08-07T05:37:36;2.33;;;2.13;;
53391;SDS011;41667;51.922;8.850;2022-08-07T05:40:03;3.13;;;2.03;;
53391;SDS011;41667;51.922;8.850;2022-08-07T05:42:28;2.95;;;2.53;;
53391;SDS011;41667;51.922;8.850;2022-08-07T05:44:53;2.83;;;2.50;;
53391;SDS011;41667;51.922;8.850;2022-08-07T05:47:19;4.50;;;2.93;;
53391;SDS011;41667;51.922;8.850;2022-08-07T05:49:46;2.95;;;2.75;;
53391;SDS011;41667;51.922;8.850;2022-08-07T05:52:12;3.63;;;2.85;;
53391;SDS011;41667;51.922;8.850;2022-08-07T05:54:37;4.28;;;2.78;;
53391;SDS011;41667;51.922;8.850;2022-08-07T05:57:02;7.47;;;2.73;;
53391;SDS011;41667;51.922;8.850;2022-08-07T05:59:28;5.05;;;2.80;;
53391;SDS011;41667;51.922;8.850;2022-08-07T06:01:55;2.80;;;2.30;;
53391;SDS011;41667;51.922;8.850;2022-08-07T06:04:21;3.05;;;2.53;;
53391;SDS011;41667;51.922;8.850;2022-08-07T06:06:47;7.03;;;2.65;;
53391;SDS011;41667;51.922;8.850;2022-08-07T06:09:13;4.15;;;2.80;;
53391;SDS011;41667;51.922;8.850;2022-08-07T06:11:39;5.97;;;3.63;;
53391;SDS011;41667;51.922;8.850;2022-08-07T06:14:04;3.75;;;2.83;;
53391;SDS011;41667;51.922;8.850;2022-08-07T06:16:33;3.47;;;2.55;;
53391;SDS011;41667;51.922;8.850;2022-08-07T06:19:01;7.22;;;3.10;;
53391;SDS011;41667;51.922;8.850;2022-08-07T06:21:27;3.53;;;2.67;;
53391;SDS011;41667;51.922;8.850;2022-08-07T06:23:52;9.18;;;2.78;;
53391;SDS011;41667;51.922;8.850;2022-08-07T06:26:18;4.05;;;2.78;;
53391;SDS011;41667;51.922;8.850;2022-08-07T06:28:53;5.68;;;2.90;;
53391;SDS011;41667;51.922;8.850;2022-08-07T06:31:19;3.17;;;2.70;;
53391;SDS011;41667;51.922;8.850;2022-08-07T06:33:45;3.42;;;2.78;;
53391;SDS011;41667;51.922;8.850;2022-08-07T06:36:11;3.33;;;2.33;;
53391;SDS011;41667;51.922;8.850;2022-08-07T06:38:36;2.95;;;2.67;;
53391;SDS011;41667;51.922;8.850;2022-08-07T06:41:02;6.35;;;2.95;;
53391;SDS011;41667;51.922;8.850;2022-08-07T06:43:28;3.88;;;2.60;;
53391;SDS011;41667;51.922;8.850;2022-08-07T06:45:56;9.88;;;2.95;;
53391;SDS011;41667;51.922;8.850;2022-08-07T06:48:21;3.55;;;2.83;;
53391;SDS011;41667;51.922;8.850;2022-08-07T06:50:46;3.65;;;2.00;;
53391;SDS011;41667;51.922;8.850;2022-08-07T06:53:12;7.88;;;2.75;;
53391;SDS011;41667;51.922;8.850;2022-08-07T06:55:37;3.22;;;2.63;;
53391;SDS011;41667;51.922;8.850;2022-08-07T06:58:04;3.63;;;2.45;;
53391;SDS011;41667;51.922;8.850;2022-08-07T07:00:32;4.15;;;2.35;;
53391;SDS011;41667;51.922;8.850;2022-08-07T07:02:59;2.72;;;2.00;;
53391;SDS011;41667;51.922;8.850;2022-08-07T07:05:25;3.17;;;2.28;;
53391;SDS011;41667;51.922;8.850;2022-08-07T07:07:50;7.13;;;2.50;;
53391;SDS011;41667;51.922;8.850;2022-08-07T07:10:16;3.23;;;2.23;;
53391;SDS011;41667;51.922;8.850;2022-08-07T07:12:51;2.75;;;2.10;;
53391;SDS011;41667;51.922;8.850;2022-08-07T07:15:22;5.60;;;2.55;;
53391;SDS011;41667;51.922;8.850;2022-08-07T07:17:49;2.47;;;2.20;;
53391;SDS011;41667;51.922;8.850;2022-08-07T07:20:21;3.20;;;2.60;;
53391;SDS011;41667;51.922;8.850;2022-08-07T07:22:47;4.35;;;2.20;;
53391;SDS011;41667;51.922;8.850;2022-08-07T07:25:13;2.45;;;2.25;;
53391;SDS011;41667;51.922;8.850;2022-08-07T07:27:41;6.07;;;2.88;;
53391;SDS011;41667;51.922;8.850;2022-08-07T07:30:08;2.30;;;1.73;;
53391;SDS011;41667;51.922;8.850;2022-08-07T07:32:35;4.32;;;2.40;;
53391;SDS011;41667;51.922;8.850;2022-08-07T07:35:02;6.32;;;2.28;;
53391;SDS011;41667;51.922;8.850;2022-08-07T07:37:28;4.57;;;2.03;;
53391;SDS011;41667;51.922;8.850;2022-08-07T07:39:54;1.60;;;1.45;;
53391;SDS011;41667;51.922;8.850;2022-08-07T07:42:25;6.47;;;3.92;;
53391;SDS011;41667;51.922;8.850;2022-08-07T07:44:50;1.75;;;1.65;;
53391;SDS011;41667;51.922;8.850;2022-08-07T07:47:16;2.55;;;1.70;;
53391;SDS011;41667;51.922;8.850;2022-08-07T07:49:41;2.45;;;1.50;;
53391;SDS011;41667;51.922;8.850;2022-08-07T07:52:07;3.55;;;1.73;;
53391;SDS011;41667;51.922;8.850;2022-08-07T07:54:34;2.70;;;1.88;;
53391;SDS011;41667;51.922;8.850;2022-08-07T07:56:59;1.77;;;1.67;;
53391;SDS011;41667;51.922;8.850;2022-08-07T07:59:25;2.90;;;2.03;;
53391;SDS011;41667;51.922;8.850;2022-08-07T08:01:51;1.70;;;1.60;;
53391;SDS011;41667;51.922;8.850;2022-08-07T08:04:17;3.63;;;1.40;;
53391;SDS011;41667;51.922;8.850;2022-08-07T08:06:44;2.15;;;1.48;;
53391;SDS011;41667;51.922;8.850;2022-08-07T08:09:10;3.38;;;1.52;;
53391;SDS011;41667;51.922;8.850;2022-08-07T08:11:36;1.73;;;1.38;;
53391;SDS011;41667;51.922;8.850;2022-08-07T08:14:02;1.20;;;1.10;;
53391;SDS011;41667;51.922;8.850;2022-08-07T08:16:34;1.13;;;1.05;;
53391;SDS011;41667;51.922;8.850;2022-08-07T08:19:01;1.23;;;1.13;;
53391;SDS011;41667;51.922;8.850;2022-08-07T08:21:27;1.02;;;1.00;;
53391;SDS011;41667;51.922;8.850;2022-08-07T08:24:11;0.80;;;0.80;;
53391;SDS011;41667;51.922;8.850;2022-08-07T08:26:56;1.33;;;0.90;;
53391;SDS011;41667;51.922;8.850;2022-08-07T08:29:30;1.05;;;0.77;;
53391;SDS011;41667;51.922;8.850;2022-08-07T08:31:57;2.33;;;0.73;;
53391;SDS011;41667;51.922;8.850;2022-08-07T08:34:23;0.75;;;0.75;;
53391;SDS011;41667;51.922;8.850;2022-08-07T08:36:49;1.52;;;0.70;;
53391;SDS011;41667;51.922;8.850;2022-08-07T08:39:15;0.57;;;0.57;;
53391;SDS011;41667;51.922;8.850;2022-08-07T08:44:07;0.93;;;0.82;;
53391;SDS011;41667;51.922;8.850;2022-08-07T08:49:32;0.52;;;0.52;;
53391;SDS011;41667;51.922;8.850;2022-08-07T08:52:21;1.10;;;0.60;;
53391;SDS011;41667;51.922;8.850;2022-08-07T08:54:50;0.80;;;0.50;;
53391;SDS011;41667;51.922;8.850;2022-08-07T08:57:26;0.55;;;0.50;;
53391;SDS011;41667;51.922;8.850;2022-08-07T08:59:55;0.85;;;0.50;;
53391;SDS011;41667;51.922;8.850;2022-08-07T09:02:31;1.48;;;1.20;;
53391;SDS011;41667;51.922;8.850;2022-08-07T09:10:27;1.55;;;0.60;;
53391;SDS011;41667;51.922;8.850;2022-08-07T09:15:29;5.15;;;0.65;;
53391;SDS011;41667;51.922;8.850;2022-08-07T09:18:01;0.35;;;0.35;;
53391;SDS011;41667;51.922;8.850;2022-08-07T09:20:31;0.88;;;0.47;;
53391;SDS011;41667;51.922;8.850;2022-08-07T09:23:08;1.35;;;0.50;;
53391;SDS011;41667;51.922;8.850;2022-08-07T09:25:57;2.78;;;0.60;;
53391;SDS011;41667;51.922;8.850;2022-08-07T09:28:31;2.40;;;0.50;;
53391;SDS011;41667;51.922;8.850;2022-08-07T09:31:00;1.02;;;0.43;;
53391;SDS011;41667;51.922;8.850;2022-08-07T09:33:31;3.30;;;0.40;;
53391;SDS011;41667;51.922;8.850;2022-08-07T09:36:13;0.75;;;0.60;;
53391;SDS011;41667;51.922;8.850;2022-08-07T09:38:58;0.70;;;0.70;;
53391;SDS011;41667;51.922;8.850;2022-08-07T09:44:02;2.03;;;0.50;;
53391;SDS011;41667;51.922;8.850;2022-08-07T09:54:20;0.70;;;0.70;;
53391;SDS011;41667;51.922;8.850;2022-08-07T10:02:21;1.10;;;0.60;;
53391;SDS011;41667;51.922;8.850;2022-08-07T10:10:01;0.52;;;0.52;;
53391;SDS011;41667;51.922;8.850;2022-08-07T10:17:47;0.95;;;0.70;;
53391;SDS011;41667;51.922;8.850;2022-08-07T10:30:52;4.07;;;2.40;;
53391;SDS011;41667;51.922;8.850;2022-08-07T10:36:19;0.68;;;0.68;;
53391;SDS011;41667;51.922;8.850;2022-08-07T10:38:50;0.50;;;0.50;;
53391;SDS011;41667;51.922;8.850;2022-08-07T10:41:27;2.67;;;1.73;;
53391;SDS011;41667;51.922;8.850;2022-08-07T10:44:01;1.17;;;1.10;;
53391;SDS011;41667;51.922;8.850;2022-08-07T10:46:28;0.70;;;0.70;;
53391;SDS011;41667;51.922;8.850;2022-08-07T10:49:02;1.35;;;0.60;;
53391;SDS011;41667;51.922;8.850;2022-08-07T10:51:38;0.30;;;0.30;;
53391;SDS011;41667;51.922;8.850;2022-08-07T10:56:39;1.30;;;1.02;;
53391;SDS011;41667;51.922;8.850;2022-08-07T11:04:21;0.50;;;0.50;;
53391;SDS011;41667;51.922;8.850;2022-08-07T11:06:50;4.28;;;0.50;;
53391;SDS011;41667;51.922;8.850;2022-08-07T11:09:19;0.40;;;0.40;;
53391;SDS011;41667;51.922;8.850;2022-08-07T11:12:03;2.38;;;0.70;;
53391;SDS011;41667;51.922;8.850;2022-08-07T11:14:36;4.18;;;0.63;;
53391;SDS011;41667;51.922;8.850;2022-08-07T11:22:24;0.75;;;0.40;;
53391;SDS011;41667;51.922;8.850;2022-08-07T11:30:04;0.73;;;0.30;;
53391;SDS011;41667;51.922;8.850;2022-08-07T11:32:33;0.85;;;0.40;;
53391;SDS011;41667;51.922;8.850;2022-08-07T11:35:01;0.82;;;0.57;;
53391;SDS011;41667;51.922;8.850;2022-08-07T11:37:41;0.80;;;0.40;;
53391;SDS011;41667;51.922;8.850;2022-08-07T11:50:42;0.75;;;0.40;;
53391;SDS011;41667;51.922;8.850;2022-08-07T12:01:25;1.20;;;0.55;;
53391;SDS011;41667;51.922;8.850;2022-08-07T12:04:07;0.82;;;0.30;;
53391;SDS011;41667;51.922;8.850;2022-08-07T12:06:42;0.40;;;0.40;;
53391;SDS011;41667;51.922;8.850;2022-08-07T12:09:21;0.40;;;0.40;;
53391;SDS011;41667;51.922;8.850;2022-08-07T12:14:37;0.90;;;0.43;;
53391;SDS011;41667;51.922;8.850;2022-08-07T12:17:06;1.65;;;0.40;;
53391;SDS011;41667;51.922;8.850;2022-08-07T12:25:04;0.50;;;0.50;;
53391;SDS011;41667;51.922;8.850;2022-08-07T12:27:49;1.10;;;0.47;;
53391;SDS011;41667;51.922;8.850;2022-08-07T12:30:17;0.90;;;0.80;;
53391;SDS011;41667;51.922;8.850;2022-08-07T12:32:52;1.65;;;0.40;;
53391;SDS011;41667;51.922;8.850;2022-08-07T12:35:18;0.90;;;0.50;;
53391;SDS011;41667;51.922;8.850;2022-08-07T12:37:45;1.30;;;0.32;;
53391;SDS011;41667;51.922;8.850;2022-08-07T12:40:11;1.10;;;0.50;;
53391;SDS011;41667;51.922;8.850;2022-08-07T12:42:37;1.77;;;0.40;;
53391;SDS011;41667;51.922;8.850;2022-08-07T12:45:06;0.80;;;0.57;;
53391;SDS011;41667;51.922;8.850;2022-08-07T12:47:39;0.40;;;0.30;;
53391;SDS011;41667;51.922;8.850;2022-08-07T12:50:11;1.20;;;0.70;;
53391;SDS011;41667;51.922;8.850;2022-08-07T12:52:42;0.38;;;0.38;;
53391;SDS011;41667;51.922;8.850;2022-08-07T12:55:14;4.30;;;0.50;;
53391;SDS011;41667;51.922;8.850;2022-08-07T12:57:41;4.03;;;0.65;;
53391;SDS011;41667;51.922;8.850;2022-08-07T13:00:07;0.85;;;0.40;;
53391;SDS011;41667;51.922;8.850;2022-08-07T13:02:43;0.50;;;0.50;;
53391;SDS011;41667;51.922;8.850;2022-08-07T13:05:52;0.60;;;0.40;;
53391;SDS011;41667;51.922;8.850;2022-08-07T13:10:37;0.30;;;0.30;;
53391;SDS011;41667;51.922;8.850;2022-08-07T13:13:16;0.95;;;0.50;;
53391;SDS011;41667;51.922;8.850;2022-08-07T13:15:49;0.35;;;0.35;;
53391;SDS011;41667;51.922;8.850;2022-08-07T13:18:20;0.75;;;0.30;;
53391;SDS011;41667;51.922;8.850;2022-08-07T13:20:56;1.42;;;0.68;;
53391;SDS011;41667;51.922;8.850;2022-08-07T13:23:42;0.25;;;0.25;;
53391;SDS011;41667;51.922;8.850;2022-08-07T13:26:12;2.60;;;0.47;;
53391;SDS011;41667;51.922;8.850;2022-08-07T13:28:40;0.50;;;0.22;;
53391;SDS011;41667;51.922;8.850;2022-08-07T13:31:09;0.95;;;0.45;;
53391;SDS011;41667;51.922;8.850;2022-08-07T13:33:37;2.28;;;0.65;;
53391;SDS011;41667;51.922;8.850;2022-08-07T13:36:10;2.10;;;0.35;;
53391;SDS011;41667;51.922;8.850;2022-08-07T13:41:16;0.20;;;0.20;;
53391;SDS011;41667;51.922;8.850;2022-08-07T13:43:44;0.40;;;0.40;;
53391;SDS011;41667;51.922;8.850;2022-08-07T13:46:12;0.30;;;0.28;;
53391;SDS011;41667;51.922;8.850;2022-08-07T13:48:38;0.98;;;0.40;;
53391;SDS011;41667;51.922;8.850;2022-08-07T13:51:04;0.90;;;0.35;;
53391;SDS011;41667;51.922;8.850;2022-08-07T13:53:30;1.15;;;0.70;;
53391;SDS011;41667;51.922;8.850;2022-08-07T13:55:57;2.42;;;0.45;;
53391;SDS011;41667;51.922;8.850;2022-08-07T13:58:23;0.57;;;0.47;;
53391;SDS011;41667;51.922;8.850;2022-08-07T14:01:08;0.40;;;0.40;;
53391;SDS011;41667;51.922;8.850;2022-08-07T14:03:33;0.95;;;0.50;;
53391;SDS011;41667;51.922;8.850;2022-08-07T14:06:03;0.32;;;0.32;;
53391;SDS011;41667;51.922;8.850;2022-08-07T14:08:28;1.03;;;0.30;;
53391;SDS011;41667;51.922;8.850;2022-08-07T14:10:54;0.63;;;0.40;;
53391;SDS011;41667;51.922;8.850;2022-08-07T14:13:21;1.48;;;0.40;;
53391;SDS011;41667;51.922;8.850;2022-08-07T14:15:50;0.65;;;0.28;;
53391;SDS011;41667;51.922;8.850;2022-08-07T14:20:43;0.40;;;0.38;;
53391;SDS011;41667;51.922;8.850;2022-08-07T14:23:13;0.30;;;0.30;;
53391;SDS011;41667;51.922;8.850;2022-08-07T14:25:39;0.55;;;0.30;;
53391;SDS011;41667;51.922;8.850;2022-08-07T14:28:07;0.40;;;0.30;;
53391;SDS011;41667;51.922;8.850;2022-08-07T14:30:32;1.48;;;0.47;;
53391;SDS011;41667;51.922;8.850;2022-08-07T14:32:59;0.68;;;0.55;;
53391;SDS011;41667;51.922;8.850;2022-08-07T14:35:32;4.38;;;0.35;;
53391;SDS011;41667;51.922;8.850;2022-08-07T14:37:57;0.85;;;0.50;;
53391;SDS011;41667;51.922;8.850;2022-08-07T14:40:24;0.55;;;0.38;;
53391;SDS011;41667;51.922;8.850;2022-08-07T14:43:04;2.97;;;0.43;;
53391;SDS011;41667;51.922;8.850;2022-08-07T14:45:30;0.82;;;0.25;;
53391;SDS011;41667;51.922;8.850;2022-08-07T14:47:56;0.30;;;0.30;;
53391;SDS011;41667;51.922;8.850;2022-08-07T14:50:24;0.55;;;0.40;;
53391;SDS011;41667;51.922;8.850;2022-08-07T14:52:50;0.63;;;0.35;;
53391;SDS011;41667;51.922;8.850;2022-08-07T14:55:16;4.47;;;0.40;;
53391;SDS011;41667;51.922;8.850;2022-08-07T14:57:42;0.95;;;0.47;;
53391;SDS011;41667;51.922;8.850;2022-08-07T15:00:10;0.30;;;0.30;;
53391;SDS011;41667;51.922;8.850;2022-08-07T15:02:35;0.93;;;0.40;;
53391;SDS011;41667;51.922;8.850;2022-08-07T15:05:01;1.13;;;0.20;;
53391;SDS011;41667;51.922;8.850;2022-08-07T15:07:27;0.88;;;0.68;;
53391;SDS011;41667;51.922;8.850;2022-08-07T15:09:54;0.88;;;0.50;;
53391;SDS011;41667;51.922;8.850;2022-08-07T15:12:21;0.50;;;0.50;;
53391;SDS011;41667;51.922;8.850;2022-08-07T15:14:48;0.47;;;0.47;;
53391;SDS011;41667;51.922;8.850;2022-08-07T15:17:14;1.85;;;0.50;;
53391;SDS011;41667;51.922;8.850;2022-08-07T15:19:48;0.50;;;0.40;;
53391;SDS011;41667;51.922;8.850;2022-08-07T15:22:14;1.73;;;0.40;;
53391;SDS011;41667;51.922;8.850;2022-08-07T15:24:40;0.85;;;0.47;;
53391;SDS011;41667;51.922;8.850;2022-08-07T15:27:07;0.55;;;0.40;;
53391;SDS011;41667;51.922;8.850;2022-08-07T15:29:35;0.40;;;0.40;;
53391;SDS011;41667;51.922;8.850;2022-08-07T15:32:01;0.30;;;0.30;;
53391;SDS011;41667;51.922;8.850;2022-08-07T15:34:34;0.50;;;0.50;;
53391;SDS011;41667;51.922;8.850;2022-08-07T15:37:01;0.70;;;0.30;;
53391;SDS011;41667;51.922;8.850;2022-08-07T15:39:28;0.30;;;0.30;;
53391;SDS011;41667;51.922;8.850;2022-08-07T15:41:56;1.50;;;0.68;;
53391;SDS011;41667;51.922;8.850;2022-08-07T15:44:22;2.65;;;0.50;;
53391;SDS011;41667;51.922;8.850;2022-08-07T15:46:54;0.52;;;0.50;;
53391;SDS011;41667;51.922;8.850;2022-08-07T15:49:21;0.95;;;0.35;;
53391;SDS011;41667;51.922;8.850;2022-08-07T15:51:48;0.93;;;0.70;;
53391;SDS011;41667;51.922;8.850;2022-08-07T15:54:14;0.40;;;0.40;;
53391;SDS011;41667;51.922;8.850;2022-08-07T15:56:39;0.63;;;0.40;;
53391;SDS011;41667;51.922;8.850;2022-08-07T15:59:09;0.73;;;0.38;;
53391;SDS011;41667;51.922;8.850;2022-08-07T16:01:37;0.93;;;0.50;;
53391;SDS011;41667;51.922;8.850;2022-08-07T16:04:04;1.02;;;0.50;;
53391;SDS011;41667;51.922;8.850;2022-08-07T16:06:34;0.50;;;0.50;;
53391;SDS011;41667;51.922;8.850;2022-08-07T16:09:01;0.28;;;0.28;;
53391;SDS011;41667;51.922;8.850;2022-08-07T16:14:04;1.98;;;0.63;;
53391;SDS011;41667;51.922;8.850;2022-08-07T16:24:22;1.05;;;0.40;;
53391;SDS011;41667;51.922;8.850;2022-08-07T16:29:25;0.40;;;0.40;;
53391;SDS011;41667;51.922;8.850;2022-08-07T16:44:58;1.23;;;0.68;;
53391;SDS011;41667;51.922;8.850;2022-08-07T16:50:15;0.50;;;0.28;;
53391;SDS011;41667;51.922;8.850;2022-08-07T16:52:53;0.50;;;0.50;;
53391;SDS011;41667;51.922;8.850;2022-08-07T16:56:27;1.75;;;0.50;;
53391;SDS011;41667;51.922;8.850;2022-08-07T16:58:25;0.40;;;0.40;;
53391;SDS011;41667;51.922;8.850;2022-08-07T17:03:26;0.55;;;0.55;;
53391;SDS011;41667;51.922;8.850;2022-08-07T17:06:10;4.13;;;0.77;;
53391;SDS011;41667;51.922;8.850;2022-08-07T17:08:43;2.28;;;0.70;;
53391;SDS011;41667;51.922;8.850;2022-08-07T17:11:21;1.15;;;0.57;;
53391;SDS011;41667;51.922;8.850;2022-08-07T17:14:12;1.27;;;0.55;;
53391;SDS011;41667;51.922;8.850;2022-08-07T17:16:50;0.80;;;0.80;;
53391;SDS011;41667;51.922;8.850;2022-08-07T17:19:20;1.80;;;0.70;;
53391;SDS011;41667;51.922;8.850;2022-08-07T17:21:46;1.00;;;0.50;;
53391;SDS011;41667;51.922;8.850;2022-08-07T17:24:19;0.60;;;0.60;;